Maryland METAR Reports


Distance/Direction noted is from Ellicott City, MD as the crow flies

KCBE - Cumberland - 118 miles WNW
Updated: Fri, 10/31/2014 9:17 PM
Overcast
Overcast
 Wind from calm
Wind: Calm
Temperature: 45°F
Dew Point: 43°F
Humidity: 93%
Barometer: 29.91 inHg
Clouds: Overcast
Visibility: 7 miles
Cloud Details: Partly Cloudy 800 ft
Mostly Cloudy 1200 ft
Overcast 3500 ft
2014/11/01 01:17 KCBE 010117Z AUTO 00000KT 7SM SCT008 BKN012 OVC035 07/06 A2991 RMK AO1
KHGR - Hagerstown - 57 miles NW
Updated: Fri, 10/31/2014 8:53 PM
Overcast
Overcast
 Wind from N
Wind: N 6 mph
Temperature: 48°F
Wind Chill: 45°F
Dew Point: 34°F
Humidity: 58%
Barometer: 29.86 inHg
Clouds: Overcast
Visibility: 10 miles
Cloud Details: Overcast 6000 ft
2014/11/01 00:53 KHGR 010053Z 01005KT 10SM OVC060 09/01 A2986 RMK AO2 SLP125 T00940011
 
KFDK - Frederick - 34 miles NW
Updated: Fri, 10/31/2014 9:15 PM
Partly Cloudy
Partly Cloudy
 Wind from calm
Wind: Calm
Temperature: 46°F
Dew Point: 36°F
Humidity: 66%
Barometer: 29.88 inHg
Clouds: Partly Cloudy
Visibility: 10 miles
Cloud Details: Partly Cloudy 6000 ft
2014/11/01 01:15 KFDK 010115Z AUTO 00000KT 10SM SCT060 08/02 A2988 RMK AO2 LTG DSNT E
KGAI - Gaithersburg - 26 miles SW
Updated: Fri, 10/31/2014 9:15 PM
Overcast
Overcast
 Wind from calm
Wind: Calm
Temperature: 46°F
Dew Point: 34°F
Humidity: 62%
Barometer: 29.89 inHg
Clouds: Overcast
Visibility: 10 miles
Cloud Details: Overcast 5000 ft
2014/11/01 01:15 KGAI 010115Z 00000KT 10SM OVC050 08/01 A2989 RMK AO1
 
KBWI - BWI Airport - 15 miles SE
Updated: Fri, 10/31/2014 8:54 PM
Mostly Cloudy
Mostly Cloudy
 Wind from NE
Wind: NE 6 mph
Temperature: 48°F
Wind Chill: 45°F
Dew Point: 37°F
Humidity: 66%
Barometer: 29.85 inHg
Clouds: Mostly Cloudy
Visibility: 10 miles
Cloud Details: Partly Cloudy 5500 ft
Mostly Cloudy 17000 ft
Mostly Cloudy 21000 ft
2014/11/01 00:54 KBWI 010054Z 04005KT 10SM SCT055 BKN170 BKN210 09/03 A2985 RMK AO2 SLP108 T00940028 $
KNAK - Annapolis - 32 miles SSE
Updated: Fri, 10/31/2014 8:54 PM
Clear
Clear
 Wind from NNE
Wind: NNE 3 mph
Temperature: 52°F
Dew Point: 39°F
Humidity: 62%
Barometer: 29.85 inHg
Clouds: Clear
Visibility: 10 miles
2014/11/01 00:54 KNAK 010054Z AUTO 02003KT 10SM CLR 11/04 A2985 RMK AO2 SLP111 T01060039
 
KESN - Easton - 63 miles SE
Updated: Fri, 10/31/2014 7:50 PM
NOT Current
Clear
Clear
 Wind from NNE
Wind: NNE 6 mph
Temperature: 46°F
Wind Chill: 43°F
Dew Point: 39°F
Humidity: 76%
Barometer: 29.89 inHg
Clouds: Clear
Visibility: 10 miles
2014/10/31 23:50 KESN 312350Z 02005KT 10SM SKC 08/04 A2989
KSBY - Salisbury - 112 miles SE
Updated: Fri, 10/31/2014 8:54 PM
Overcast
Overcast
 Wind from N
Wind: N 8 mph
Temperature: 52°F
Dew Point: 39°F
Humidity: 62%
Barometer: 29.82 inHg
Clouds: Overcast
Visibility: 10 miles
Cloud Details: Mostly Cloudy 3800 ft
Overcast 4500 ft
2014/11/01 00:54 KSBY 010054Z 36007KT 10SM BKN038 OVC045 11/04 A2982 RMK AO2 SLP098 T01110044